Date,TemperatureHighF,TemperatureAvgF,TemperatureLowF,DewpointHighF,DewpointAvgF,DewpointLowF,HumidityHigh,HumidityAvg,HumidityLow,PressureMaxIn,PressureMinIn,WindSpeedMaxMPH,WindSpeedAvgMPH,GustSpeedMaxMPH,PrecipitationSumIn
2014-1-1,68.4,52.8,42.4,55.7,48.0,41.6,100,85,45,30.18,30.07,5,1,11,0.00
2014-1-2,73.6,55.0,42.7,57.3,49.8,41.9,99,85,38,30.14,30.02,4,1,10,0.00
2014-1-3,59.5,53.9,50.5,57.5,53.0,50.2,100,97,87,30.08,29.96,5,1,12,0.02
2014-1-4,65.9,55.2,46.8,57.1,52.1,46.5,100,90,67,30.06,29.97,5,1,10,0.02
2014-1-5,46.9,46.5,45.9,46.4,46.0,45.1,99,98,97,30.09,30.08,0,0,1,0.00
2014-1-6,82.4,61.2,46.4,38.4,28.4,17.0,63,34,10,30.24,30.11,5,3,12,0.00
2014-1-7,68.6,54.2,41.8,52.0,40.3,33.5,80,62,35,30.19,30.08,4,1,9,0.00
2014-1-8,67.7,55.5,47.4,56.0,52.0,46.3,100,89,63,30.18,30.06,6,1,14,0.00
2014-1-9,59.4,58.0,56.5,54.9,54.4,53.9,91,88,85,30.05,30.03,4,1,8,0.00
2014-1-10,69.6,54.2,44.0,56.6,50.4,43.5,99,88,62,30.18,30.08,6,1,10,0.01
2014-1-11,69.4,56.9,46.0,55.4,50.9,45.7,100,83,54,30.20,30.08,5,1,11,0.01
2014-1-12,65.7,54.2,50.3,57.2,52.2,49.2,99,93,68,30.16,30.08,2,0,6,0.01
2014-1-13,83.3,60.2,44.9,49.8,41.0,21.5,96,59,11,30.34,30.18,5,2,12,0.01
2014-1-14,85.7,63.0,44.9,42.0,35.4,21.2,72,45,10,30.34,30.22,5,2,9,0.01
2014-1-15,88.4,65.8,48.4,40.3,34.3,26.4,63,38,11,30.26,30.13,5,3,11,0.00
2014-1-16,85.8,64.6,48.9,46.2,36.5,22.9,57,40,10,30.16,30.06,4,2,9,0.00
2014-1-17,88.3,63.6,49.3,40.1,33.5,22.4,67,37,9,30.16,30.05,5,2,12,0.00
2014-1-18,79.7,58.7,42.9,49.2,38.2,26.5,84,55,16,30.14,30.02,7,1,11,0.00
2014-1-19,77.2,56.1,42.8,52.2,43.3,29.5,92,69,18,30.16,30.07,4,1,10,0.00
2014-1-20,77.3,57.3,41.7,53.5,43.8,35.9,95,67,23,30.21,30.10,6,1,14,0.00
2014-1-21,73.8,57.8,46.5,57.7,48.1,38.6,93,74,28,30.19,30.09,4,1,9,0.00
2014-1-22,73.2,58.6,49.6,58.9,53.5,48.5,97,85,48,30.08,29.94,7,1,11,0.00
2014-1-23,54.4,54.1,53.9,52.7,52.4,52.2,94,94,94,29.97,29.95,3,1,8,0.00
2014-1-24,68.7,59.0,52.3,57.8,53.9,50.9,99,85,53,30.26,30.13,8,1,13,0.00
2014-1-25,71.8,61.1,53.3,58.5,54.1,51.1,97,79,56,30.24,30.13,6,1,12,0.00
2014-1-26,53.6,52.7,51.7,52.5,51.7,50.6,98,96,95,30.17,30.15,0,0,1,0.00
2014-1-27,68.5,59.6,49.7,58.2,54.9,48.6,99,85,69,30.14,30.05,7,2,14,0.00
2014-1-28,65.9,58.7,51.3,58.5,56.0,50.2,98,91,76,30.18,30.07,6,1,11,0.00
2014-1-29,67.3,59.4,52.8,59.3,56.7,52.0,99,91,71,30.13,29.97,6,2,11,0.00
2014-1-30,61.5,58.9,56.9,58.3,55.5,53.1,94,88,81,30.01,29.91,8,3,12,0.00
2014-1-31,64.9,59.6,56.0,54.5,43.8,23.0,89,60,24,30.01,29.92,16,5,28,0.00